Time;durP1;ratioP1;P1;durP2;ratioP2;P2;SDS_P1;SDS_P2;PMS_P1;PMS_P2;Temp;Humidity;BMP_temperature;BMP_pressure;BME280_temperature;BME280_humidity;BME280_pressure;Samples;Min_cycle;Max_cycle;Signal;HPM_P1;HPM_P2
2022/11/20 00:00:49;;;;;;;18.33;10.30;;;-1.80;99.90;;;;;;5041838;28;20040;-71
2022/11/20 00:03:15;;;;;;;18.50;11.10;;;-1.80;99.90;;;;;;5040214;28;20174;-73
2022/11/20 00:05:41;;;;;;;20.87;11.40;;;-1.80;99.90;;;;;;5040631;28;20068;-72
2022/11/20 00:08:07;;;;;;;18.37;10.40;;;-1.80;99.90;;;;;;5055698;28;20049;-72
2022/11/20 00:10:35;;;;;;;17.83;10.23;;;-1.70;99.90;;;;;;5037117;28;20132;-73
2022/11/20 00:13:01;;;;;;;19.08;10.70;;;-1.70;99.90;;;;;;5047481;28;20120;-73
2022/11/20 00:15:26;;;;;;;18.43;10.20;;;-1.70;99.90;;;;;;5040202;28;20131;-73
2022/11/20 00:17:52;;;;;;;20.60;11.33;;;-1.70;99.90;;;;;;5043283;28;20532;-73
2022/11/20 00:20:18;;;;;;;21.17;11.47;;;-1.70;99.90;;;;;;5080526;28;20127;-72
2022/11/20 00:22:44;;;;;;;23.20;11.45;;;-1.70;99.90;;;;;;5055505;28;20052;-73
2022/11/20 00:25:10;;;;;;;22.90;12.10;;;-1.70;99.90;;;;;;5066098;28;20496;-74
2022/11/20 00:27:35;;;;;;;23.07;12.80;;;-1.70;99.90;;;;;;5022847;28;20043;-73
2022/11/20 00:30:01;;;;;;;20.80;11.57;;;-1.70;99.90;;;;;;5054624;28;20614;-73
2022/11/20 00:32:27;;;;;;;18.67;11.30;;;-1.60;99.90;;;;;;5060941;28;20418;-73
2022/11/20 00:34:52;;;;;;;21.47;11.47;;;-1.70;99.90;;;;;;5048764;28;20079;-72
2022/11/20 00:37:18;;;;;;;20.93;11.40;;;-1.70;99.90;;;;;;5043484;28;20041;-73
2022/11/20 00:39:44;;;;;;;17.97;10.73;;;-1.70;99.90;;;;;;5032190;28;20484;-73
2022/11/20 00:42:09;;;;;;;17.60;10.00;;;-1.70;99.90;;;;;;5048456;28;20044;-73
2022/11/20 00:44:35;;;;;;;19.53;10.93;;;-1.80;99.90;;;;;;5065873;28;20154;-73
2022/11/20 00:47:01;;;;;;;19.97;10.73;;;-1.80;99.90;;;;;;5043972;28;20040;-73
2022/11/20 00:49:26;;;;;;;20.27;10.07;;;-1.80;99.90;;;;;;5028076;28;20037;-72
2022/11/20 00:51:52;;;;;;;17.03;9.97;;;-1.80;99.90;;;;;;5057420;28;20147;-73
2022/11/20 00:54:18;;;;;;;22.17;10.60;;;-1.90;99.90;;;;;;5049150;28;20637;-73
2022/11/20 00:56:43;;;;;;;16.47;9.23;;;-1.90;99.90;;;;;;5044589;28;20489;-73
2022/11/20 00:59:10;;;;;;;19.93;9.80;;;-1.90;99.90;;;;;;5048414;28;20044;-73
2022/11/20 01:01:37;;;;;;;17.42;9.65;;;-1.90;99.90;;;;;;5063099;28;20040;-73
2022/11/20 01:04:03;;;;;;;18.27;9.73;;;-1.90;99.90;;;;;;5064573;28;20113;-73
2022/11/20 01:06:31;;;;;;;18.17;10.13;;;-1.90;99.90;;;;;;5023674;28;20041;-72
2022/11/20 01:08:59;;;;;;;16.15;9.70;;;-1.90;99.90;;;;;;5064334;28;20044;-73
2022/11/20 01:11:30;;;;;;;17.85;9.82;;;-1.90;99.90;;;;;;5056510;28;20041;-73
2022/11/20 01:13:57;;;;;;;19.52;10.43;;;-1.80;99.90;;;;;;5064748;28;20040;-72
2022/11/20 01:16:26;;;;;;;17.30;9.45;;;-1.80;99.90;;;;;;5048749;28;20135;-72
2022/11/20 01:18:55;;;;;;;17.15;9.57;;;-1.80;99.90;;;;;;5061532;28;20064;-73
2022/11/20 01:21:24;;;;;;;16.48;9.50;;;-1.70;99.90;;;;;;5049032;28;20032;-73
2022/11/20 01:23:51;;;;;;;17.60;9.55;;;-1.70;99.90;;;;;;5056878;28;20514;-73
2022/11/20 01:26:19;;;;;;;16.15;9.50;;;-1.70;99.90;;;;;;5059197;28;20044;-72
2022/11/20 01:28:45;;;;;;;18.52;9.48;;;-1.60;99.90;;;;;;5062490;28;20397;-73
2022/11/20 01:31:21;;;;;;;16.30;8.95;;;-1.60;99.90;;;;;;5042509;28;20500;-73
2022/11/20 01:33:49;;;;;;;18.42;10.25;;;-1.50;99.90;;;;;;5060305;28;20130;-73
2022/11/20 01:36:16;;;;;;;15.98;9.75;;;-1.50;99.90;;;;;;5051482;28;20041;-73
2022/11/20 01:38:42;;;;;;;17.27;9.88;;;-1.40;99.90;;;;;;5055165;28;20044;-73
2022/11/20 01:41:09;;;;;;;20.00;10.63;;;-1.40;99.90;;;;;;5038614;28;21016;-73
2022/11/20 01:43:35;;;;;;;20.35;10.93;;;-1.30;99.90;;;;;;5062325;28;20086;-73
2022/11/20 01:46:18;;;;;;;18.13;10.13;;;-1.30;99.90;;;;;;5057262;28;20048;-73
2022/11/20 01:49:01;;;;;;;16.05;9.38;;;-1.30;99.90;;;;;;5019529;28;20051;-73
2022/11/20 01:52:00;;;;;;;16.63;8.65;;;-1.30;99.90;;;;;;5062896;28;20052;-73
2022/11/20 01:54:35;;;;;;;15.88;9.20;;;-1.30;99.90;;;;;;5059166;28;20135;-73
2022/11/20 01:57:02;;;;;;;17.80;9.93;;;-1.30;99.90;;;;;;5041137;28;20036;-73
2022/11/20 01:59:29;;;;;;;15.43;9.30;;;-1.30;99.90;;;;;;5046926;28;20041;-73
2022/11/20 02:01:55;;;;;;;17.02;8.98;;;-1.30;99.90;;;;;;5057344;28;20129;-72
2022/11/20 02:04:22;;;;;;;14.87;8.90;;;-1.30;99.90;;;;;;5064523;28;20094;-72
2022/11/20 02:06:57;;;;;;;16.23;9.20;;;-1.30;99.90;;;;;;5065887;28;20056;-73
2022/11/20 02:09:23;;;;;;;15.98;9.95;;;-1.30;99.90;;;;;;5051650;28;20040;-73
2022/11/20 02:11:49;;;;;;;13.30;8.40;;;-1.40;99.90;;;;;;5064933;28;20102;-73
2022/11/20 02:14:15;;;;;;;13.95;8.80;;;-1.40;99.90;;;;;;5061270;28;20086;-73
2022/11/20 02:16:45;;;;;;;15.37;8.87;;;-1.40;99.90;;;;;;5020911;28;20481;-73
2022/11/20 02:19:20;;;;;;;14.98;9.40;;;-1.40;99.90;;;;;;5052018;28;20284;-73
2022/11/20 02:22:01;;;;;;;14.50;8.43;;;-1.40;99.90;;;;;;5060833;28;20041;-72
2022/11/20 02:24:27;;;;;;;14.20;7.82;;;-1.40;99.90;;;;;;5059172;28;20072;-72
2022/11/20 02:27:02;;;;;;;16.37;8.70;;;-1.40;99.90;;;;;;5054816;28;20071;-72
2022/11/20 02:29:41;;;;;;;16.65;7.85;;;-1.50;99.90;;;;;;5056230;28;20275;-72
2022/11/20 02:32:19;;;;;;;15.45;8.57;;;-1.50;99.90;;;;;;5049577;28;20052;-72
2022/11/20 02:34:44;;;;;;;15.65;9.07;;;-1.50;99.90;;;;;;5052633;28;20119;-72
2022/11/20 02:37:10;;;;;;;14.67;8.83;;;-1.50;99.90;;;;;;5035088;28;20496;-72
2022/11/20 02:39:36;;;;;;;13.97;8.43;;;-1.60;99.90;;;;;;5034723;28;20041;-72
2022/11/20 02:42:02;;;;;;;15.23;8.80;;;-1.60;99.90;;;;;;5028819;28;20047;-72
2022/11/20 02:44:27;;;;;;;15.07;8.57;;;-1.60;99.90;;;;;;5056612;28;20175;-72
2022/11/20 02:46:53;;;;;;;15.53;8.60;;;-1.50;99.90;;;;;;5056676;28;20052;-73
2022/11/20 02:49:19;;;;;;;15.37;9.30;;;-1.50;99.90;;;;;;5022582;28;20463;-73
2022/11/20 02:51:44;;;;;;;15.10;9.60;;;-1.50;99.90;;;;;;5040253;28;20044;-72
2022/11/20 02:54:10;;;;;;;14.80;8.37;;;-1.50;99.90;;;;;;5045158;28;20056;-72
2022/11/20 02:56:38;;;;;;;14.57;9.20;;;-1.50;99.90;;;;;;5020421;28;20106;-72
2022/11/20 02:59:04;;;;;;;18.58;9.23;;;-1.50;99.90;;;;;;5058523;28;20041;-72
2022/11/20 03:01:30;;;;;;;13.80;8.90;;;-1.50;99.90;;;;;;5042286;28;20048;-72
2022/11/20 03:03:55;;;;;;;14.57;8.90;;;-1.50;99.90;;;;;;5051849;28;20044;-72
2022/11/20 03:06:22;;;;;;;14.77;8.87;;;-1.50;99.90;;;;;;5067924;28;20040;-72
2022/11/20 03:08:48;;;;;;;19.13;10.10;;;-1.50;99.90;;;;;;5059397;28;20513;-72
2022/11/20 03:11:14;;;;;;;16.70;9.67;;;-1.50;99.90;;;;;;5059349;28;20356;-72
2022/11/20 03:13:40;;;;;;;18.02;9.43;;;-1.50;99.90;;;;;;5042374;28;20048;-72
2022/11/20 03:16:08;;;;;;;16.73;9.73;;;-1.40;99.90;;;;;;5054378;28;20045;-73
2022/11/20 03:18:34;;;;;;;16.02;9.90;;;-1.40;99.90;;;;;;5051341;28;20400;-72
2022/11/20 03:20:59;;;;;;;16.17;9.63;;;-1.40;99.90;;;;;;5053141;28;20040;-72
2022/11/20 03:23:25;;;;;;;16.23;9.27;;;-1.50;99.90;;;;;;5056109;28;20063;-72
2022/11/20 03:25:51;;;;;;;17.73;9.65;;;-1.40;99.90;;;;;;5023541;28;20452;-72
2022/11/20 03:28:17;;;;;;;17.73;10.07;;;-1.50;99.90;;;;;;5063603;28;20048;-72
2022/11/20 03:30:43;;;;;;;16.27;9.37;;;-1.50;99.90;;;;;;5037747;28;20041;-72
2022/11/20 03:33:08;;;;;;;16.03;9.93;;;-1.50;99.90;;;;;;5063022;28;20315;-72
2022/11/20 03:35:34;;;;;;;18.50;9.57;;;-1.50;99.90;;;;;;5029159;28;20142;-72
2022/11/20 03:38:00;;;;;;;16.00;9.43;;;-1.50;99.90;;;;;;5046613;28;20040;-72
2022/11/20 03:40:25;;;;;;;15.47;9.50;;;-1.50;99.90;;;;;;5029309;28;20409;-72
2022/11/20 03:42:51;;;;;;;15.67;9.60;;;-1.50;99.90;;;;;;5042129;28;20040;-74
2022/11/20 03:45:18;;;;;;;16.33;9.50;;;-1.50;99.90;;;;;;5067175;28;20041;-72
2022/11/20 03:47:44;;;;;;;18.10;9.50;;;-1.60;99.90;;;;;;5058248;28;20047;-72
2022/11/20 03:50:15;;;;;;;18.40;10.32;;;-1.60;99.90;;;;;;5043155;28;20174;-72
2022/11/20 03:52:41;;;;;;;17.05;9.32;;;-1.60;99.90;;;;;;5061369;28;20060;-72
2022/11/20 03:55:07;;;;;;;15.13;9.38;;;-1.60;99.90;;;;;;5055872;28;20041;-72
2022/11/20 03:57:33;;;;;;;19.55;10.10;;;-1.70;99.90;;;;;;5058208;28;20040;-73
2022/11/20 03:59:59;;;;;;;15.37;9.13;;;-1.70;99.90;;;;;;5055068;28;20571;-73
2022/11/20 04:02:25;;;;;;;18.00;9.70;;;-1.80;99.90;;;;;;5041304;28;20060;-72
2022/11/20 04:04:50;;;;;;;17.73;9.73;;;-1.80;99.90;;;;;;5038617;28;20276;-72
2022/11/20 04:07:16;;;;;;;17.33;9.73;;;-1.80;99.90;;;;;;5053043;28;20044;-72
2022/11/20 04:09:42;;;;;;;15.57;8.80;;;-1.90;99.90;;;;;;5045822;28;20146;-72
2022/11/20 04:12:07;;;;;;;17.73;9.77;;;-1.90;99.90;;;;;;5042327;28;20046;-72
2022/11/20 04:14:33;;;;;;;18.33;10.07;;;-2.00;99.90;;;;;;5051483;28;20603;-72
2022/11/20 04:16:59;;;;;;;15.33;9.53;;;-2.10;99.90;;;;;;5043025;28;20079;-72
2022/11/20 04:19:24;;;;;;;15.93;9.53;;;-2.20;99.90;;;;;;5037948;28;20390;-73
2022/11/20 04:21:50;;;;;;;16.83;9.37;;;-2.20;99.90;;;;;;5030279;28;20040;-73
2022/11/20 04:24:16;;;;;;;18.17;10.10;;;-2.30;99.90;;;;;;5042149;28;20040;-73
2022/11/20 04:26:41;;;;;;;17.57;9.60;;;-2.40;99.90;;;;;;5049032;28;20041;-73
2022/11/20 04:29:11;;;;;;;18.53;9.20;;;-2.50;99.90;;;;;;5054100;28;20052;-73
2022/11/20 04:31:37;;;;;;;14.38;8.98;;;-2.50;99.90;;;;;;5058797;28;20654;-73
2022/11/20 04:34:04;;;;;;;14.57;8.87;;;-2.60;99.90;;;;;;5064021;28;20049;-73
2022/11/20 04:36:31;;;;;;;14.48;8.43;;;-2.70;99.90;;;;;;5059252;28;20142;-73
2022/11/20 04:39:00;;;;;;;17.08;9.50;;;-2.70;99.90;;;;;;5057043;28;20153;-73
2022/11/20 04:41:32;;;;;;;13.73;8.32;;;-2.70;99.90;;;;;;5059584;28;20040;-73
2022/11/20 04:44:02;;;;;;;17.08;9.90;;;-2.80;99.90;;;;;;5064599;28;20424;-73
2022/11/20 04:46:28;;;;;;;16.98;8.55;;;-2.80;99.90;;;;;;5057942;28;20105;-73
2022/11/20 04:48:54;;;;;;;18.35;9.15;;;-2.80;99.90;;;;;;5055768;28;20127;-73
2022/11/20 04:51:20;;;;;;;16.35;9.48;;;-2.90;99.90;;;;;;5035034;28;20160;-73
2022/11/20 04:53:46;;;;;;;17.60;9.43;;;-2.90;99.90;;;;;;5058718;28;20064;-73
2022/11/20 04:56:13;;;;;;;17.73;9.43;;;-2.90;99.90;;;;;;5034078;28;20059;-73
2022/11/20 04:58:39;;;;;;;19.08;9.50;;;-2.90;99.90;;;;;;5059026;28;20048;-73
2022/11/20 05:01:20;;;;;;;17.98;9.45;;;-3.00;99.90;;;;;;5046274;28;20047;-73
2022/11/20 05:03:46;;;;;;;16.40;9.50;;;-3.00;99.90;;;;;;5059019;28;20033;-73
2022/11/20 05:06:14;;;;;;;14.35;8.52;;;-3.00;99.90;;;;;;5047998;28;20041;-73
2022/11/20 05:08:40;;;;;;;16.30;9.02;;;-3.10;99.90;;;;;;5048142;28;20049;-73
2022/11/20 05:11:15;;;;;;;18.58;10.10;;;-3.10;99.90;;;;;;5045783;28;20056;-73
2022/11/20 05:13:41;;;;;;;15.30;8.95;;;-3.10;99.90;;;;;;5060289;28;20505;-73
2022/11/20 05:16:08;;;;;;;18.45;9.13;;;-3.20;99.90;;;;;;5064832;28;20082;-73
2022/11/20 05:18:35;;;;;;;15.45;8.98;;;-3.20;99.90;;;;;;5061198;28;20074;-73
2022/11/20 05:21:01;;;;;;;16.27;8.40;;;-3.30;99.90;;;;;;5072210;28;20049;-73
2022/11/20 05:23:28;;;;;;;18.42;9.70;;;-3.30;99.90;;;;;;5048400;28;20553;-73
2022/11/20 05:25:55;;;;;;;17.98;10.02;;;-3.40;99.90;;;;;;5059945;28;20596;-73
2022/11/20 05:28:22;;;;;;;17.80;9.23;;;-3.40;99.90;;;;;;5052775;28;20477;-73
2022/11/20 05:30:48;;;;;;;19.35;9.82;;;-3.40;99.90;;;;;;5038573;28;20083;-73
2022/11/20 05:33:14;;;;;;;15.43;9.75;;;-3.40;99.90;;;;;;5060761;28;20066;-73
2022/11/20 05:35:40;;;;;;;15.82;9.00;;;-3.50;99.90;;;;;;5065543;28;20048;-73
2022/11/20 05:38:05;;;;;;;20.73;10.13;;;-3.50;99.90;;;;;;5030794;28;20132;-73
2022/11/20 05:40:31;;;;;;;18.43;9.97;;;-3.50;99.90;;;;;;5048482;28;20133;-73
2022/11/20 05:42:57;;;;;;;18.00;9.57;;;-3.50;99.90;;;;;;5030213;28;20489;-73
2022/11/20 05:45:22;;;;;;;17.37;9.13;;;-3.50;99.90;;;;;;5031080;28;20504;-73
2022/11/20 05:47:48;;;;;;;17.93;9.47;;;-3.50;99.90;;;;;;5064127;28;20048;-73
2022/11/20 05:50:14;;;;;;;19.00;10.30;;;-3.50;99.90;;;;;;5047540;28;20174;-73
2022/11/20 05:52:40;;;;;;;15.82;9.90;;;-3.40;99.90;;;;;;5047409;28;20079;-73
2022/11/20 05:55:07;;;;;;;18.83;10.15;;;-3.40;99.90;;;;;;5064633;28;20049;-73
2022/11/20 05:57:33;;;;;;;18.83;10.25;;;-3.50;99.90;;;;;;5047157;28;20056;-73
2022/11/20 05:59:58;;;;;;;19.47;10.73;;;-3.50;99.90;;;;;;5063429;28;20036;-73
2022/11/20 06:02:24;;;;;;;19.60;10.10;;;-3.50;99.90;;;;;;5048067;28;20044;-73
2022/11/20 06:04:50;;;;;;;17.50;9.80;;;-3.50;99.90;;;;;;5048001;28;20032;-73
2022/11/20 06:07:15;;;;;;;17.83;9.83;;;-3.50;99.90;;;;;;5063227;28;20036;-73
2022/11/20 06:09:41;;;;;;;18.60;10.27;;;-3.50;99.90;;;;;;5062844;28;20548;-73
2022/11/20 06:12:07;;;;;;;17.53;10.50;;;-3.40;99.90;;;;;;5044118;28;20079;-73
2022/11/20 06:14:33;;;;;;;17.20;10.37;;;-3.40;99.90;;;;;;5043432;28;20053;-73
2022/11/20 06:16:59;;;;;;;19.08;10.15;;;-3.30;99.90;;;;;;5061160;28;20489;-73
2022/11/20 06:19:25;;;;;;;17.73;10.50;;;-3.30;99.90;;;;;;5043854;28;20080;-73
2022/11/20 06:21:50;;;;;;;19.07;11.27;;;-3.30;99.90;;;;;;5063543;28;20151;-73
2022/11/20 06:24:17;;;;;;;20.27;10.87;;;-3.20;99.90;;;;;;5039412;28;20520;-73
2022/11/20 06:26:43;;;;;;;18.58;10.43;;;-3.20;99.90;;;;;;5060804;28;20044;-73
2022/11/20 06:29:08;;;;;;;18.80;10.10;;;-3.10;99.90;;;;;;5030107;28;20051;-73
2022/11/20 06:31:37;;;;;;;18.73;10.47;;;-3.10;99.90;;;;;;5056491;28;20044;-73
2022/11/20 06:34:05;;;;;;;18.42;10.10;;;-3.10;99.90;;;;;;5080882;28;20135;-73
2022/11/20 06:36:31;;;;;;;19.52;10.40;;;-3.10;99.90;;;;;;5047702;28;20048;-73
2022/11/20 06:38:57;;;;;;;18.85;10.52;;;-3.10;99.90;;;;;;5049196;28;20032;-73
2022/11/20 06:41:23;;;;;;;19.73;10.53;;;-3.00;99.90;;;;;;5033016;28;20510;-73
2022/11/20 06:43:49;;;;;;;18.90;10.37;;;-3.00;99.90;;;;;;5070611;28;20036;-73
2022/11/20 06:46:19;;;;;;;18.80;10.38;;;-3.00;99.90;;;;;;5050087;28;20705;-73
2022/11/20 06:48:46;;;;;;;18.88;10.85;;;-3.00;99.90;;;;;;5068631;28;20491;-73
2022/11/20 06:51:13;;;;;;;17.70;10.63;;;-2.90;99.90;;;;;;5047781;28;20125;-73
2022/11/20 06:53:39;;;;;;;19.83;10.85;;;-2.90;99.90;;;;;;5062985;28;20096;-73
2022/11/20 06:56:06;;;;;;;19.13;10.23;;;-2.90;99.90;;;;;;5064308;28;20118;-73
2022/11/20 06:58:33;;;;;;;19.15;10.02;;;-3.00;99.90;;;;;;5052889;28;20087;-73
2022/11/20 07:00:59;;;;;;;18.05;10.50;;;-3.00;99.90;;;;;;5066030;28;20040;-73
2022/11/20 07:03:25;;;;;;;18.00;10.57;;;-3.00;99.90;;;;;;5048386;28;20048;-73
2022/11/20 07:05:51;;;;;;;21.03;12.23;;;-3.00;99.90;;;;;;5070128;28;20400;-74
2022/11/20 07:08:17;;;;;;;17.57;10.73;;;-3.00;99.90;;;;;;5065997;28;20056;-73
2022/11/20 07:10:43;;;;;;;18.20;11.17;;;-3.00;99.90;;;;;;5070988;28;20275;-73
2022/11/20 07:13:08;;;;;;;20.33;12.10;;;-3.00;99.90;;;;;;5037675;28;20526;-73
2022/11/20 07:15:34;;;;;;;18.47;10.80;;;-3.00;99.90;;;;;;5065448;28;20244;-73
2022/11/20 07:18:00;;;;;;;17.10;10.07;;;-3.00;99.90;;;;;;5058507;28;20133;-73
2022/11/20 07:20:26;;;;;;;20.58;11.75;;;-3.00;99.90;;;;;;5064891;28;20123;-73
2022/11/20 07:22:57;;;;;;;22.57;12.63;;;-3.00;99.90;;;;;;5065762;28;20134;-73
2022/11/20 07:25:23;;;;;;;22.90;10.95;;;-3.10;99.90;;;;;;5047412;28;20297;-73
2022/11/20 07:27:49;;;;;;;21.75;12.52;;;-3.00;99.90;;;;;;5047614;28;20135;-73
2022/11/20 07:30:16;;;;;;;22.93;12.67;;;-3.00;99.90;;;;;;5049466;28;20140;-73
2022/11/20 07:32:41;;;;;;;18.88;10.95;;;-3.00;99.90;;;;;;5033419;28;20352;-73
2022/11/20 07:35:07;;;;;;;18.33;9.90;;;-3.00;99.90;;;;;;5054346;28;20463;-73
2022/11/20 07:37:36;;;;;;;16.13;9.57;;;-3.00;99.90;;;;;;5062701;28;20485;-73
2022/11/20 07:40:03;;;;;;;18.50;10.13;;;-2.90;99.90;;;;;;5065340;28;20045;-74
2022/11/20 07:42:29;;;;;;;19.65;10.57;;;-2.90;99.90;;;;;;5050426;28;20451;-73
2022/11/20 07:44:54;;;;;;;19.93;11.17;;;-2.90;99.90;;;;;;5054002;28;20032;-73
2022/11/20 07:47:20;;;;;;;21.73;11.90;;;-2.90;99.90;;;;;;5049561;28;20044;-72
2022/11/20 07:49:46;;;;;;;22.40;11.43;;;-2.80;99.90;;;;;;5065534;28;20041;-74
2022/11/20 07:52:12;;;;;;;18.80;10.73;;;-2.80;99.90;;;;;;5051870;28;20047;-73
2022/11/20 07:54:38;;;;;;;18.80;10.73;;;-2.80;99.90;;;;;;5062093;28;20057;-74
2022/11/20 07:57:03;;;;;;;20.00;10.67;;;-2.70;99.90;;;;;;5041878;28;20115;-73
2022/11/20 07:59:29;;;;;;;21.00;12.07;;;-2.70;99.90;;;;;;5048237;28;20079;-73
2022/11/20 08:01:55;;;;;;;19.53;10.80;;;-2.60;99.90;;;;;;5045203;28;20052;-74
2022/11/20 08:04:21;;;;;;;20.13;10.40;;;-2.60;99.90;;;;;;5060504;28;20672;-73
2022/11/20 08:06:47;;;;;;;17.13;10.57;;;-2.60;99.90;;;;;;5067273;28;20048;-73
2022/11/20 08:09:13;;;;;;;19.23;11.50;;;-2.60;99.90;;;;;;5044050;28;20040;-74
2022/11/20 08:14:22;;;;;;;19.95;12.07;;;-2.60;99.90;;;;;;5060377;28;20135;-73
2022/11/20 08:16:49;;;;;;;19.47;11.90;;;-2.60;99.90;;;;;;5043707;28;20171;-73
2022/11/20 08:19:17;;;;;;;28.60;12.48;;;-2.60;99.90;;;;;;5058313;28;20036;-73
2022/11/20 08:21:44;;;;;;;21.08;11.75;;;-2.60;99.90;;;;;;5061487;28;20068;-75
2022/11/20 08:24:10;;;;;;;23.40;12.88;;;-2.60;99.90;;;;;;5047954;28;20115;-74
2022/11/20 08:26:37;;;;;;;19.48;11.43;;;-2.60;99.90;;;;;;5059838;28;20083;-74
2022/11/20 08:29:04;;;;;;;22.25;11.75;;;-2.60;99.90;;;;;;5073038;28;20564;-74
2022/11/20 08:31:31;;;;;;;24.10;13.18;;;-2.50;99.90;;;;;;5057115;28;20052;-74
2022/11/20 08:33:56;;;;;;;20.63;12.30;;;-2.50;99.90;;;;;;5047828;28;20048;-74
2022/11/20 08:36:23;;;;;;;20.57;11.80;;;-2.40;99.90;;;;;;5040100;28;20041;-74
2022/11/20 08:38:51;;;;;;;19.33;11.93;;;-2.30;99.90;;;;;;5038919;28;20326;-74
2022/11/20 08:41:31;;;;;;;19.25;11.25;;;-2.30;99.90;;;;;;5058874;28;20400;-73
2022/11/20 08:43:58;;;;;;;16.75;10.35;;;-2.20;99.90;;;;;;5056652;28;20124;-75
2022/11/20 08:46:25;;;;;;;18.80;11.70;;;-2.10;99.90;;;;;;5055399;28;20032;-74
2022/11/20 08:48:51;;;;;;;21.42;11.80;;;-2.00;99.90;;;;;;5053672;28;20381;-74
2022/11/20 08:51:18;;;;;;;20.63;11.25;;;-1.90;99.90;;;;;;5056402;28;20518;-73
2022/11/20 08:53:44;;;;;;;25.05;12.50;;;-1.80;99.90;;;;;;5061739;28;20061;-74
2022/11/20 08:56:10;;;;;;;20.73;12.27;;;-1.80;99.90;;;;;;5041080;28;20044;-73
2022/11/20 08:58:36;;;;;;;23.60;12.57;;;-1.70;99.90;;;;;;5058558;28;20036;-74
2022/11/20 09:01:02;;;;;;;17.98;11.85;;;-1.60;99.90;;;;;;5054332;28;20064;-73
2022/11/20 09:03:28;;;;;;;18.08;10.98;;;-1.50;99.90;;;;;;5056828;28;20068;-73
2022/11/20 09:06:02;;;;;;;18.23;11.20;;;-1.40;99.90;;;;;;5058691;28;20505;-73
2022/11/20 09:08:28;;;;;;;18.73;11.10;;;-1.30;99.90;;;;;;5053501;28;20449;-73
2022/11/20 09:10:55;;;;;;;18.30;12.02;;;-1.20;99.90;;;;;;5058845;28;20044;-73
2022/11/20 09:13:22;;;;;;;22.98;14.10;;;-1.10;99.90;;;;;;5056442;28;20039;-74
2022/11/20 09:15:53;;;;;;;20.13;12.95;;;-1.00;99.90;;;;;;5043171;28;20106;-73
2022/11/20 09:18:19;;;;;;;19.85;11.93;;;-0.90;99.90;;;;;;5041245;28;20040;-73
2022/11/20 09:20:45;;;;;;;17.57;10.83;;;-0.80;99.90;;;;;;5038637;28;20051;-73
2022/11/20 09:23:10;;;;;;;18.40;11.57;;;-0.70;99.90;;;;;;5055722;28;20495;-73
2022/11/20 09:25:36;;;;;;;18.13;11.67;;;-0.50;99.90;;;;;;5022854;28;20072;-73
2022/11/20 09:28:02;;;;;;;19.83;11.10;;;-0.40;99.90;;;;;;5037086;28;20055;-73
2022/11/20 09:30:28;;;;;;;17.87;10.33;;;-0.20;99.90;;;;;;5042220;28;20039;-73
2022/11/20 09:32:54;;;;;;;19.00;10.53;;;-0.10;99.90;;;;;;5022596;28;20044;-73
2022/11/20 09:35:19;;;;;;;16.53;9.93;;;0.00;99.90;;;;;;5057460;28;20053;-73
2022/11/20 09:37:45;;;;;;;16.90;10.00;;;0.10;99.90;;;;;;5027128;28;20377;-73
2022/11/20 09:40:29;;;;;;;17.33;10.27;;;0.20;99.90;;;;;;5042641;28;20043;-73
2022/11/20 09:43:14;;;;;;;17.13;9.77;;;0.30;99.90;;;;;;5042488;28;20040;-73
2022/11/20 09:46:07;;;;;;;16.35;9.85;;;0.30;99.90;;;;;;5055073;28;20040;-73
2022/11/20 09:49:06;;;;;;;16.10;9.77;;;0.40;99.90;;;;;;5043170;28;20377;-73
2022/11/20 09:51:50;;;;;;;13.95;9.45;;;0.40;99.90;;;;;;5058950;28;20041;-73
2022/11/20 09:54:34;;;;;;;15.90;9.07;;;0.40;99.90;;;;;;5057576;28;20052;-73
2022/11/20 09:57:05;;;;;;;15.77;9.70;;;0.40;99.90;;;;;;5070746;28;20068;-73
2022/11/20 09:59:31;;;;;;;14.65;9.77;;;0.40;99.90;;;;;;5062438;28;20045;-73
2022/11/20 10:01:58;;;;;;;16.37;10.30;;;0.50;99.90;;;;;;5058783;28;20087;-73
2022/11/20 10:04:24;;;;;;;16.27;9.57;;;0.50;99.90;;;;;;5062001;28;20423;-73
2022/11/20 10:07:07;;;;;;;16.33;10.23;;;0.60;99.90;;;;;;5060245;28;20045;-73
2022/11/20 10:09:38;;;;;;;18.00;9.93;;;0.70;99.90;;;;;;5075307;28;20062;-73
2022/11/20 10:12:06;;;;;;;17.88;10.35;;;0.70;99.90;;;;;;5047712;28;20044;-73
2022/11/20 10:14:58;;;;;;;16.25;10.40;;;0.80;99.90;;;;;;5037570;28;20051;-73
2022/11/20 10:17:46;;;;;;;18.25;10.23;;;0.80;99.90;;;;;;5041756;28;21181;-73
2022/11/20 10:20:35;;;;;;;15.77;9.40;;;0.90;99.90;;;;;;5054805;28;20044;-73
2022/11/20 10:23:13;;;;;;;14.30;9.00;;;0.90;99.90;;;;;;5054993;28;20036;-71
2022/11/20 10:26:00;;;;;;;12.43;8.20;;;1.00;99.90;;;;;;5039370;28;20084;-71
2022/11/20 10:28:48;;;;;;;12.73;7.90;;;1.00;99.90;;;;;;5057468;28;20044;-71
2022/11/20 10:31:26;;;;;;;11.90;7.47;;;0.90;99.90;;;;;;5070933;28;20539;-71
2022/11/20 10:33:54;;;;;;;9.93;6.72;;;0.90;99.90;;;;;;5039901;28;20492;-71
2022/11/20 10:36:26;;;;;;;11.98;6.68;;;1.00;99.90;;;;;;5043146;28;20045;-71
2022/11/20 10:39:00;;;;;;;11.80;6.95;;;1.00;99.90;;;;;;5053206;28;20119;-71
2022/11/20 10:41:40;;;;;;;9.25;6.18;;;1.10;99.90;;;;;;5051642;28;20032;-71
2022/11/20 10:47:16;;;;;;;8.07;5.93;;;1.20;99.90;;;;;;5061785;28;20048;-72
2022/11/20 10:49:50;;;;;;;9.60;5.63;;;1.40;99.90;;;;;;5036384;28;20055;-71
2022/11/20 10:52:44;;;;;;;9.07;5.43;;;1.40;99.90;;;;;;5053669;28;20052;-72
2022/11/20 10:55:16;;;;;;;10.85;6.18;;;1.50;99.90;;;;;;5059862;28;20123;-72
2022/11/20 10:57:48;;;;;;;10.02;6.85;;;1.60;99.90;;;;;;5033872;28;20502;-72
2022/11/20 11:00:16;;;;;;;9.82;6.28;;;1.60;99.90;;;;;;5047273;28;20059;-72
2022/11/20 11:02:48;;;;;;;9.85;6.10;;;1.60;99.90;;;;;;5052626;28;20068;-72
2022/11/20 11:05:20;;;;;;;11.18;6.38;;;1.60;99.90;;;;;;5045200;28;20485;-72
2022/11/20 11:07:53;;;;;;;7.95;5.60;;;1.50;99.90;;;;;;5028427;28;20047;-72
2022/11/20 11:10:36;;;;;;;10.30;6.85;;;1.50;99.90;;;;;;5051589;28;20036;-72
2022/11/20 11:13:02;;;;;;;10.88;6.43;;;1.50;99.90;;;;;;5066179;28;20121;-72
2022/11/20 11:15:39;;;;;;;12.70;6.70;;;1.50;99.90;;;;;;5021441;28;20433;-73
2022/11/20 11:18:08;;;;;;;11.68;6.65;;;1.60;99.90;;;;;;5049856;28;20048;-72
2022/11/20 11:20:34;;;;;;;8.95;6.10;;;1.60;99.90;;;;;;5034079;28;20040;-72
2022/11/20 11:23:00;;;;;;;11.00;7.13;;;1.60;99.90;;;;;;5039312;28;20501;-72
2022/11/20 11:25:30;;;;;;;9.77;6.60;;;1.70;99.90;;;;;;5030956;28;20082;-72
2022/11/20 11:28:02;;;;;;;12.02;6.63;;;1.80;99.90;;;;;;5054135;28;20496;-72
2022/11/20 11:30:30;;;;;;;9.90;6.38;;;1.90;99.90;;;;;;5055250;28;20133;-72
2022/11/20 11:33:09;;;;;;;9.73;6.38;;;2.00;99.90;;;;;;5063097;28;20097;-74
2022/11/20 11:35:59;;;;;;;10.93;7.00;;;2.10;99.90;;;;;;5044322;28;20045;-74
2022/11/20 11:38:35;;;;;;;10.55;6.68;;;2.20;99.90;;;;;;5050665;28;20128;-72
2022/11/20 11:41:02;;;;;;;8.35;5.70;;;2.30;99.90;;;;;;5045220;28;20091;-73
2022/11/20 11:46:20;;;;;;;9.80;6.32;;;2.50;97.40;;;;;;5054736;28;20088;-72
2022/11/20 11:49:15;;;;;;;9.77;6.07;;;2.50;98.10;;;;;;5054916;28;20533;-73
2022/11/20 11:52:08;;;;;;;8.63;5.57;;;2.40;99.90;;;;;;5077669;28;20428;-72
2022/11/20 11:54:42;;;;;;;8.55;5.35;;;2.40;97.70;;;;;;5058957;28;20571;-72
2022/11/20 11:57:26;;;;;;;8.63;5.47;;;2.40;96.90;;;;;;5056654;28;20084;-72
2022/11/20 12:00:14;;;;;;;8.23;5.35;;;2.30;96.80;;;;;;5050538;28;20178;-73
2022/11/20 12:02:46;;;;;;;9.18;6.07;;;2.30;97.50;;;;;;5059351;28;20685;-73
2022/11/20 12:05:19;;;;;;;8.23;5.78;;;2.30;98.50;;;;;;5046842;28;20076;-73
2022/11/20 12:07:54;;;;;;;9.73;5.80;;;2.30;98.20;;;;;;5063151;28;20248;-73
2022/11/20 12:10:23;;;;;;;11.00;6.32;;;2.30;98.20;;;;;;5039576;28;20515;-73
2022/11/20 12:13:04;;;;;;;9.43;6.90;;;2.30;95.30;;;;;;5046740;28;20559;-73
2022/11/20 12:15:32;;;;;;;10.73;6.30;;;2.40;98.20;;;;;;5058329;28;20532;-72
2022/11/20 12:17:58;;;;;;;10.55;6.30;;;2.40;97.20;;;;;;5060116;28;20087;-72
2022/11/20 12:20:32;;;;;;;9.40;6.87;;;2.40;97.40;;;;;;5069842;28;20457;-72
2022/11/20 12:23:15;;;;;;;9.93;7.00;;;2.40;99.90;;;;;;5049792;28;20287;-73
2022/11/20 12:25:45;;;;;;;9.27;6.25;;;2.40;96.10;;;;;;5040747;28;20053;-73
2022/11/20 12:28:16;;;;;;;10.82;6.88;;;2.40;97.50;;;;;;5043861;28;20525;-73
2022/11/20 12:31:04;;;;;;;10.65;6.60;;;2.30;98.60;;;;;;5060662;28;20395;-73
2022/11/20 12:33:48;;;;;;;10.95;6.90;;;2.30;97.40;;;;;;5055935;28;20159;-73
2022/11/20 12:36:27;;;;;;;10.02;6.88;;;2.30;99.90;;;;;;5049537;28;20336;-73
2022/11/20 12:39:19;;;;;;;12.32;6.32;;;2.30;99.90;;;;;;5054780;28;20151;-73
2022/11/20 12:45:09;;;;;;;9.90;6.80;;;2.30;98.60;;;;;;5048793;28;20040;-73
2022/11/20 12:47:49;;;;;;;11.55;7.15;;;2.30;97.20;;;;;;5041823;28;20082;-73
2022/11/20 12:50:36;;;;;;;10.30;6.40;;;2.30;99.90;;;;;;5060081;28;20048;-72
2022/11/20 12:53:08;;;;;;;10.30;7.05;;;2.30;99.90;;;;;;5056225;28;20049;-72
2022/11/20 12:56:11;;;;;;;10.52;7.03;;;2.30;98.30;;;;;;5039322;28;20055;-72
2022/11/20 12:59:01;;;;;;;9.85;5.93;;;2.40;97.90;;;;;;5056248;28;20529;-72